createdAt,value
2018-11-04T00:01:37.812Z,57.60
2018-11-04T00:06:36.736Z,57.50
2018-11-04T00:14:05.862Z,57.30
2018-11-04T00:16:35.489Z,57.40
2018-11-04T00:21:34.487Z,57.40
2018-11-04T00:24:04.163Z,57.50
2018-11-04T00:31:32.112Z,57.40
2018-11-04T00:36:31.006Z,57.40
2018-11-04T00:41:29.647Z,57.40
2018-11-04T00:46:28.299Z,57.40
2018-11-04T00:48:57.893Z,57.40
2018-11-04T00:51:27.466Z,57.40
2018-11-04T00:56:26.141Z,57.50
2018-11-04T00:58:55.698Z,57.50
2018-11-04T01:03:54.418Z,57.60
2018-11-04T01:08:53.223Z,57.60
2018-11-04T01:11:22.720Z,57.60
2018-11-04T01:21:19.555Z,57.60
2018-11-04T01:23:49.085Z,57.60
2018-11-04T01:26:18.640Z,57.60
2018-11-04T01:28:48.193Z,57.60
2018-11-04T01:36:15.997Z,57.60
2018-11-04T01:38:45.781Z,57.60
2018-11-04T01:43:44.439Z,57.70
2018-11-04T01:48:43.129Z,57.60
2018-11-04T01:51:12.702Z,57.70
2018-11-04T02:04:09.740Z,57.40
2018-11-04T02:09:09.908Z,57.40
2018-11-04T02:14:08.691Z,57.40
2018-11-04T02:16:38.419Z,57.40
2018-11-04T02:19:07.972Z,57.30
2018-11-04T02:24:06.612Z,57.20
2018-11-04T02:29:05.468Z,57.20
2018-11-04T02:31:35.032Z,57.10
2018-11-04T02:36:33.679Z,57.10
2018-11-04T02:44:01.431Z,57.10
2018-11-04T02:49:00.112Z,57.10
2018-11-04T02:56:28.125Z,57.10
2018-11-04T03:01:26.756Z,57.00
2018-11-04T03:03:56.308Z,57.10
2018-11-04T03:08:54.952Z,57.10
2018-11-04T03:16:23.128Z,57.00
2018-11-04T03:26:20.106Z,57.00
2018-11-04T03:31:18.969Z,57.30
2018-11-04T03:33:48.812Z,57.00
2018-11-04T03:38:47.457Z,57.10
2018-11-04T03:41:17.035Z,57.00
2018-11-04T04:03:41.392Z,57.20
2018-11-04T04:08:40.540Z,57.20
2018-11-04T04:21:08.976Z,57.10
2018-11-04T04:28:39.931Z,57.00
2018-11-04T04:36:08.549Z,57.00
2018-11-04T04:38:38.080Z,57.00
2018-11-04T04:41:07.927Z,57.00
2018-11-04T04:46:06.560Z,57.00
2018-11-04T04:53:35.095Z,57.00
2018-11-04T04:56:05.291Z,56.90
2018-11-04T04:58:34.836Z,56.90
2018-11-04T05:13:29.869Z,56.90
2018-11-04T05:15:59.417Z,56.90
2018-11-04T05:20:58.091Z,56.90
2018-11-04T05:25:56.836Z,57.00
2018-11-04T05:28:26.402Z,56.90
2018-11-04T05:33:25.082Z,57.00
2018-11-04T05:35:54.630Z,57.00
2018-11-04T05:40:53.297Z,57.00
2018-11-04T05:43:22.854Z,57.00
2018-11-04T05:48:22.136Z,57.00
2018-11-04T05:55:50.756Z,57.10
2018-11-04T05:58:20.317Z,57.10
2018-11-04T06:00:49.874Z,57.10
2018-11-04T06:10:47.052Z,57.10
2018-11-04T06:15:45.707Z,57.00
2018-11-04T06:23:13.456Z,57.00
2018-11-04T06:30:41.454Z,56.90
2018-11-04T06:35:40.102Z,56.90
2018-11-04T06:40:38.777Z,56.80
2018-11-04T06:50:36.322Z,56.70
2018-11-04T06:53:06.073Z,56.70
2018-11-04T06:55:35.612Z,56.60
2018-11-04T07:00:34.912Z,56.60
2018-11-04T07:05:33.586Z,56.50
2018-11-04T07:08:03.123Z,56.50
2018-11-04T07:13:02.019Z,56.60
2018-11-04T07:22:59.279Z,56.60
2018-11-04T07:25:28.889Z,56.50
2018-11-04T07:27:58.435Z,56.40
2018-11-04T07:32:57.079Z,56.30
2018-11-04T07:40:25.571Z,56.30
2018-11-04T07:47:53.351Z,56.30
2018-11-04T07:52:52.012Z,56.30
2018-11-04T07:55:21.789Z,56.30
2018-11-04T08:05:19.049Z,56.20
2018-11-04T08:07:48.593Z,56.20
2018-11-04T08:10:18.163Z,56.00
2018-11-04T08:12:47.709Z,55.70
2018-11-04T08:20:16.619Z,54.70
2018-11-04T08:22:46.161Z,54.40
2018-11-04T08:27:45.200Z,53.40
2018-11-04T08:32:43.811Z,53.20
2018-11-04T08:35:13.350Z,53.20
2018-11-04T08:40:12.065Z,53.50
2018-11-04T09:07:37.881Z,54.60
2018-11-04T09:10:11.182Z,54.70
2018-11-04T09:15:11.016Z,54.50
2018-11-04T09:32:42.392Z,56.70
2018-11-04T09:45:10.609Z,55.90
2018-11-04T09:52:39.741Z,55.70
2018-11-04T09:55:10.565Z,55.60
2018-11-04T10:00:11.760Z,55.20
2018-11-04T10:02:41.573Z,55.00
2018-11-04T10:05:11.761Z,55.00
2018-11-04T10:07:41.336Z,54.90
2018-11-04T10:12:43.069Z,54.80
2018-11-04T10:15:12.972Z,54.80
2018-11-04T10:32:42.854Z,54.60
2018-11-04T10:45:11.936Z,55.20
2018-11-04T10:57:40.168Z,55.20
2018-11-04T11:02:45.664Z,55.00
2018-11-04T11:22:41.697Z,54.70
2018-11-04T11:25:11.500Z,54.60
2018-11-04T11:27:41.071Z,54.50
2018-11-04T11:30:10.781Z,54.00
2018-11-04T11:35:09.448Z,53.80
2018-11-04T11:37:39.034Z,53.80
2018-11-04T11:45:08.723Z,54.20
2018-11-04T11:52:37.755Z,54.20
2018-11-04T11:55:08.029Z,54.20
2018-11-04T12:17:35.013Z,54.10
2018-11-04T12:20:06.532Z,54.10
2018-11-04T12:22:36.182Z,54.20
2018-11-04T12:32:34.480Z,54.00
2018-11-04T12:35:04.220Z,54.00
2018-11-04T12:40:02.795Z,53.90
2018-11-04T12:42:33.028Z,53.90
2018-11-04T12:47:31.725Z,54.40
2018-11-04T12:50:01.268Z,54.20
2018-11-04T12:57:29.275Z,54.00
2018-11-04T13:02:28.012Z,53.80
2018-11-04T13:04:57.579Z,53.80
2018-11-04T13:09:56.324Z,53.80
2018-11-04T13:12:25.837Z,53.70
2018-11-04T13:17:24.524Z,53.60
2018-11-04T13:19:54.084Z,53.70
2018-11-04T13:24:52.735Z,53.80
2018-11-04T13:34:49.873Z,53.20
2018-11-04T13:42:17.844Z,53.10
2018-11-04T13:49:45.943Z,53.00
2018-11-04T13:57:13.809Z,52.90
2018-11-04T14:02:13.884Z,53.00
2018-11-04T14:04:43.432Z,53.10
2018-11-04T14:07:12.967Z,53.10
2018-11-04T14:09:43.768Z,53.10
2018-11-04T14:12:13.295Z,54.00
2018-11-04T14:17:11.945Z,54.60
2018-11-04T14:22:10.928Z,54.60
2018-11-04T14:24:40.484Z,55.00
2018-11-04T14:27:10.077Z,55.00
2018-11-04T14:29:39.628Z,54.20
2018-11-04T14:34:38.656Z,54.00
2018-11-04T14:37:08.243Z,53.90
2018-11-04T14:52:03.656Z,55.20
2018-11-04T14:54:33.216Z,55.00
2018-11-04T14:59:31.847Z,55.00
2018-11-04T15:11:58.175Z,54.20
2018-11-04T15:29:23.372Z,54.00
2018-11-04T15:36:51.998Z,54.50
2018-11-04T15:44:20.169Z,53.70
2018-11-04T15:49:18.795Z,53.50
2018-11-04T15:51:48.325Z,53.50
2018-11-04T15:56:47.001Z,53.60
2018-11-04T16:01:45.645Z,53.60
2018-11-04T16:04:15.883Z,53.60
2018-11-04T16:06:45.440Z,53.70
2018-11-04T16:11:44.123Z,53.70
2018-11-04T16:14:13.660Z,53.80
2018-11-04T16:19:12.533Z,53.90
2018-11-04T16:21:42.090Z,53.90
2018-11-04T16:26:41.133Z,54.00
2018-11-04T16:29:10.683Z,54.00
2018-11-04T16:39:08.244Z,54.10
2018-11-04T16:41:37.832Z,54.20
2018-11-04T16:44:07.924Z,54.10
2018-11-04T16:51:36.913Z,54.30
2018-11-04T16:54:06.832Z,54.40
2018-11-04T16:56:36.729Z,54.30
2018-11-04T16:59:06.649Z,54.40
2018-11-04T17:06:34.766Z,54.60
2018-11-04T17:09:07.216Z,54.60
2018-11-04T17:19:05.615Z,54.80
2018-11-04T17:26:33.745Z,54.60
2018-11-04T17:29:03.281Z,54.90
2018-11-04T17:31:32.831Z,55.00
2018-11-04T17:34:02.377Z,55.10
2018-11-04T17:39:02.975Z,55.20
2018-11-04T17:46:30.744Z,55.30
2018-11-04T17:49:00.286Z,55.30
2018-11-04T17:53:59.002Z,55.50
2018-11-04T18:01:27.868Z,55.60
2018-11-04T18:03:57.419Z,55.70
2018-11-04T18:06:27.390Z,55.70
2018-11-04T18:13:55.298Z,55.90
2018-11-04T18:18:54.116Z,55.90
2018-11-04T18:23:52.770Z,55.90
2018-11-04T18:31:20.836Z,56.10
2018-11-04T18:38:49.187Z,56.40
2018-11-04T18:48:46.564Z,56.60
2018-11-04T18:51:16.121Z,56.70
2018-11-04T18:56:15.071Z,56.70
2018-11-04T18:58:44.616Z,56.70
2018-11-04T19:01:14.166Z,56.70
2018-11-04T19:11:11.391Z,56.70
2018-11-04T19:18:39.409Z,56.80
2018-11-04T19:23:37.984Z,56.80
2018-11-04T19:41:03.036Z,56.70
2018-11-04T19:46:01.701Z,56.80
2018-11-04T19:48:31.308Z,56.80
2018-11-04T19:53:30.193Z,56.80
2018-11-04T19:55:59.886Z,56.80
2018-11-04T19:58:29.482Z,56.80
2018-11-04T20:13:30.693Z,56.90
2018-11-04T20:21:01.496Z,57.00
2018-11-04T20:23:31.044Z,57.00
2018-11-04T20:26:03.876Z,57.10
2018-11-04T20:28:33.428Z,57.20
2018-11-04T20:31:02.976Z,57.10
2018-11-04T20:33:32.533Z,57.10
2018-11-04T20:38:37.220Z,57.10
2018-11-04T20:46:10.701Z,57.20
2018-11-04T20:51:14.805Z,57.20
2018-11-04T20:56:18.852Z,57.20
2018-11-04T21:03:47.540Z,57.50
2018-11-04T21:06:17.278Z,57.50
2018-11-04T21:11:15.928Z,57.60
2018-11-04T21:18:44.452Z,57.80
2018-11-04T21:28:42.924Z,57.80
2018-11-04T21:31:12.757Z,57.80
2018-11-04T21:33:42.839Z,57.80
2018-11-04T21:38:41.880Z,57.80
2018-11-04T21:43:41.548Z,57.70
2018-11-04T21:51:09.833Z,57.70
2018-11-04T21:56:09.105Z,57.70
2018-11-04T21:58:38.589Z,57.70
2018-11-04T22:01:08.149Z,57.80
2018-11-04T22:06:07.335Z,57.80
2018-11-04T22:18:33.817Z,57.90
2018-11-04T22:28:31.476Z,58.00
2018-11-04T22:33:30.128Z,58.10
2018-11-04T22:40:57.934Z,58.20
2018-11-04T22:43:27.500Z,58.20
2018-11-04T22:45:57.049Z,58.30
2018-11-04T22:48:26.604Z,58.30
2018-11-04T22:53:25.253Z,58.50
2018-11-04T22:58:23.882Z,58.50
2018-11-04T23:00:58.579Z,58.50
2018-11-04T23:03:28.423Z,58.50
2018-11-04T23:06:02.211Z,58.60
2018-11-04T23:08:31.784Z,58.60
2018-11-04T23:13:30.460Z,58.70
2018-11-04T23:16:00.013Z,58.60
2018-11-04T23:20:58.674Z,58.70
2018-11-04T23:25:57.297Z,58.80
2018-11-04T23:30:55.931Z,58.80
2018-11-04T23:35:55.086Z,58.90
2018-11-04T23:40:54.296Z,58.90
2018-11-04T23:43:23.839Z,59.00
2018-11-04T23:45:53.404Z,58.80
2018-11-04T23:48:22.961Z,58.60
2018-11-04T23:50:52.513Z,58.40
2018-11-04T23:53:22.447Z,58.30
2018-11-04T23:58:21.184Z,58.10
